createdAt,value
2018-12-17T00:00:02.791Z,1.87
2018-12-17T00:02:30.767Z,2.27
2018-12-17T00:04:58.681Z,2.00
2018-12-17T00:07:26.624Z,1.87
2018-12-17T00:09:54.549Z,2.57
2018-12-17T00:12:22.482Z,1.73
2018-12-17T00:14:50.429Z,2.13
2018-12-17T00:17:18.392Z,2.37
2018-12-17T00:19:46.617Z,2.27
2018-12-17T00:22:14.918Z,2.20
2018-12-17T00:24:42.825Z,2.60
2018-12-17T00:27:10.748Z,2.03
2018-12-17T00:29:39.952Z,2.67
2018-12-17T00:32:07.900Z,2.27
2018-12-17T00:34:35.838Z,1.93
2018-12-17T00:37:03.769Z,2.83
2018-12-17T00:39:31.701Z,1.60
2018-12-17T00:41:59.619Z,2.17
2018-12-17T00:44:27.588Z,2.23
2018-12-17T00:46:55.493Z,2.17
2018-12-17T00:49:23.419Z,1.47
2018-12-17T00:51:51.360Z,1.40
2018-12-17T00:54:19.337Z,1.10
2018-12-17T00:56:47.436Z,1.00
2018-12-17T00:59:15.374Z,1.27
2018-12-17T01:01:43.297Z,0.83
2018-12-17T01:04:11.244Z,1.27
2018-12-17T01:06:39.200Z,1.63
2018-12-17T01:09:07.167Z,1.43
2018-12-17T01:11:35.071Z,1.40
2018-12-17T01:14:02.997Z,1.03
2018-12-17T01:16:30.924Z,2.10
2018-12-17T01:18:58.847Z,1.90
2018-12-17T01:21:27.127Z,2.10
2018-12-17T01:23:55.093Z,2.17
2018-12-17T01:26:23.406Z,2.07
2018-12-17T01:28:51.476Z,1.93
2018-12-17T01:31:19.432Z,1.77
2018-12-17T01:33:47.339Z,2.10
2018-12-17T01:36:15.280Z,2.00
2018-12-17T01:38:43.203Z,2.80
2018-12-17T01:41:11.134Z,1.63
2018-12-17T01:43:39.090Z,2.43
2018-12-17T01:46:07.008Z,1.50
2018-12-17T01:48:34.935Z,1.97
2018-12-17T01:51:02.861Z,2.03
2018-12-17T01:53:30.792Z,2.37
2018-12-17T01:55:58.721Z,1.83
2018-12-17T01:58:29.267Z,2.57
2018-12-17T02:00:56.632Z,1.47
2018-12-17T02:03:24.582Z,2.03
2018-12-17T02:05:52.716Z,1.67
2018-12-17T02:08:20.711Z,1.50
2018-12-17T02:10:48.653Z,1.90
2018-12-17T02:13:16.660Z,2.07
2018-12-17T02:15:44.607Z,1.60
2018-12-17T02:18:12.516Z,1.93
2018-12-17T02:20:40.489Z,2.10
2018-12-17T02:23:08.397Z,1.80
2018-12-17T02:25:36.337Z,2.27
2018-12-17T02:28:04.306Z,1.97
2018-12-17T02:30:32.224Z,1.93
2018-12-17T02:33:00.160Z,1.37
2018-12-17T02:35:28.076Z,1.83
2018-12-17T02:37:56.036Z,1.53
2018-12-17T02:40:23.980Z,1.67
2018-12-17T02:42:51.974Z,2.30
2018-12-17T02:45:19.944Z,1.90
2018-12-17T02:47:47.860Z,1.43
2018-12-17T02:50:15.796Z,1.70
2018-12-17T02:52:43.725Z,1.83
2018-12-17T02:55:11.737Z,2.10
2018-12-17T02:57:39.644Z,1.70
2018-12-17T03:00:08.219Z,1.63
2018-12-17T03:02:36.203Z,2.37
2018-12-17T03:05:04.584Z,2.30
2018-12-17T03:07:32.515Z,1.63
2018-12-17T03:10:00.444Z,2.20
2018-12-17T03:12:28.375Z,1.83
2018-12-17T03:14:56.355Z,2.13
2018-12-17T03:17:24.339Z,1.90
2018-12-17T03:19:52.258Z,1.70
2018-12-17T03:22:20.181Z,2.23
2018-12-17T03:24:48.103Z,1.60
2018-12-17T03:27:16.040Z,1.50
2018-12-17T03:29:43.968Z,1.40
2018-12-17T03:32:11.911Z,1.20
2018-12-17T03:34:39.834Z,1.40
2018-12-17T03:37:07.772Z,1.93
2018-12-17T03:39:35.701Z,1.60
2018-12-17T03:42:03.652Z,1.83
2018-12-17T03:44:31.581Z,1.53
2018-12-17T03:46:59.550Z,1.77
2018-12-17T03:49:27.595Z,1.33
2018-12-17T03:51:55.544Z,1.60
2018-12-17T03:54:23.456Z,1.87
2018-12-17T03:56:51.396Z,1.23
2018-12-17T03:59:19.334Z,2.47
2018-12-17T04:01:47.262Z,2.00
2018-12-17T04:04:15.193Z,1.70
2018-12-17T04:06:43.133Z,2.03
2018-12-17T04:09:11.061Z,1.87
2018-12-17T04:11:39.006Z,1.93
2018-12-17T04:14:06.995Z,1.63
2018-12-17T04:16:34.942Z,1.87
2018-12-17T04:19:02.860Z,1.60
2018-12-17T04:21:30.971Z,1.80
2018-12-17T04:23:58.956Z,1.60
2018-12-17T04:26:26.893Z,2.00
2018-12-17T04:28:54.831Z,2.03
2018-12-17T04:31:22.882Z,1.60
2018-12-17T04:33:50.809Z,1.90
2018-12-17T04:36:18.843Z,1.87
2018-12-17T04:38:46.896Z,2.00
2018-12-17T04:41:14.834Z,1.93
2018-12-17T04:43:42.777Z,2.17
2018-12-17T04:46:10.708Z,2.17
2018-12-17T04:48:38.649Z,2.30
2018-12-17T04:51:07.454Z,2.20
2018-12-17T04:53:35.388Z,2.30
2018-12-17T04:56:03.355Z,2.17
2018-12-17T04:58:31.386Z,2.87
2018-12-17T05:00:59.317Z,2.10
2018-12-17T05:03:27.384Z,1.63
2018-12-17T05:05:55.468Z,1.50
2018-12-17T05:08:23.409Z,2.10
2018-12-17T05:10:51.378Z,2.00
2018-12-17T05:13:19.338Z,1.80
2018-12-17T05:15:47.289Z,2.80
2018-12-17T05:18:15.333Z,2.40
2018-12-17T05:20:43.299Z,2.20
2018-12-17T05:23:11.243Z,2.00
2018-12-17T05:25:39.233Z,2.03
2018-12-17T05:28:07.174Z,2.23
2018-12-17T05:30:35.111Z,2.40
2018-12-17T05:33:03.105Z,2.30
2018-12-17T05:35:31.020Z,1.77
2018-12-17T05:37:59.193Z,2.07
2018-12-17T05:40:27.120Z,1.50
2018-12-17T05:42:55.057Z,2.57
2018-12-17T05:45:22.994Z,2.43
2018-12-17T05:48:21.707Z,2.70
2018-12-17T05:50:49.649Z,2.60
2018-12-17T05:53:17.580Z,2.07
2018-12-17T05:55:45.512Z,4.67
2018-12-17T05:58:13.475Z,2.73
2018-12-17T06:00:41.541Z,2.33
2018-12-17T06:03:09.475Z,3.07
2018-12-17T06:05:37.491Z,3.13
2018-12-17T06:08:05.628Z,3.20
2018-12-17T06:10:33.595Z,2.90
2018-12-17T06:13:01.539Z,3.03
2018-12-17T06:15:29.464Z,2.40
2018-12-17T06:17:57.393Z,2.77
2018-12-17T06:20:25.316Z,2.63
2018-12-17T06:22:53.240Z,2.87
2018-12-17T06:25:21.168Z,2.77
2018-12-17T06:27:49.072Z,3.03
2018-12-17T06:30:17.011Z,2.33
2018-12-17T06:32:44.928Z,2.50
2018-12-17T06:35:12.863Z,2.27
2018-12-17T06:37:40.799Z,3.10
2018-12-17T06:40:10.372Z,4.07
2018-12-17T06:42:38.682Z,3.70
2018-12-17T06:45:06.652Z,3.10
2018-12-17T06:47:34.587Z,3.17
2018-12-17T06:50:02.585Z,2.87
2018-12-17T06:52:30.558Z,3.17
2018-12-17T06:54:58.543Z,3.53
2018-12-17T06:57:26.550Z,2.80
2018-12-17T06:59:54.524Z,2.73
2018-12-17T07:02:22.877Z,3.30
2018-12-17T07:04:51.195Z,3.57
2018-12-17T07:07:19.572Z,4.10
2018-12-17T07:09:47.778Z,3.97
2018-12-17T07:12:15.961Z,3.57
2018-12-17T07:14:44.087Z,4.37
2018-12-17T07:17:12.308Z,3.30
2018-12-17T07:19:40.896Z,3.33
2018-12-17T07:22:11.024Z,4.17
2018-12-17T07:24:39.879Z,3.37
2018-12-17T07:27:08.494Z,4.27
2018-12-17T07:29:37.050Z,5.10
2018-12-17T07:32:05.080Z,6.40
2018-12-17T07:34:33.304Z,5.53
2018-12-17T07:37:03.036Z,4.75
2018-12-17T07:39:32.113Z,5.93
2018-12-17T07:42:00.222Z,5.70
2018-12-17T07:44:28.241Z,6.70
2018-12-17T07:46:56.223Z,6.17
2018-12-17T07:49:24.337Z,5.50
2018-12-17T07:51:52.475Z,3.77
2018-12-17T07:54:22.194Z,3.70
2018-12-17T07:56:50.204Z,3.87
2018-12-17T07:59:18.391Z,4.67
2018-12-17T08:01:46.539Z,3.93
2018-12-17T08:04:14.744Z,2.70
2018-12-17T08:06:42.975Z,3.63
2018-12-17T08:09:10.979Z,4.40
2018-12-17T08:11:39.188Z,3.63
2018-12-17T08:14:07.448Z,3.30
2018-12-17T08:16:36.290Z,2.80
2018-12-17T08:19:04.346Z,3.10
2018-12-17T08:21:32.656Z,4.13
2018-12-17T08:24:00.791Z,3.67
2018-12-17T08:26:33.972Z,2.80
2018-12-17T08:29:08.405Z,3.90
2018-12-17T08:31:36.775Z,3.10
2018-12-17T08:34:04.961Z,3.43
2018-12-17T08:36:34.260Z,3.50
2018-12-17T08:39:03.851Z,5.40
2018-12-17T08:41:31.957Z,3.03
2018-12-17T08:44:01.040Z,3.43
2018-12-17T08:46:29.196Z,2.70
2018-12-17T08:48:57.328Z,3.63
2018-12-17T08:51:25.630Z,2.90
2018-12-17T08:53:54.024Z,2.60
2018-12-17T08:56:22.135Z,2.50
2018-12-17T08:58:50.397Z,3.13
2018-12-17T09:01:18.576Z,2.57
2018-12-17T09:03:47.459Z,3.03
2018-12-17T09:06:16.047Z,2.40
2018-12-17T09:08:45.622Z,2.37
2018-12-17T09:11:13.769Z,3.60
2018-12-17T09:13:41.934Z,2.90
2018-12-17T09:16:10.356Z,3.60
2018-12-17T09:18:38.350Z,2.60
2018-12-17T09:21:08.414Z,3.27
2018-12-17T09:23:37.505Z,2.80
2018-12-17T09:26:06.136Z,2.57
2018-12-17T09:28:34.421Z,4.20
2018-12-17T09:31:02.747Z,3.57
2018-12-17T09:33:31.085Z,3.47
2018-12-17T09:35:59.370Z,2.77
2018-12-17T09:38:27.387Z,3.00
2018-12-17T09:40:55.566Z,3.37
2018-12-17T09:43:23.596Z,3.37
2018-12-17T09:45:51.825Z,4.67
2018-12-17T09:48:19.853Z,4.47
2018-12-17T09:50:47.942Z,4.00
2018-12-17T09:53:16.062Z,4.30
2018-12-17T09:55:44.193Z,3.70
2018-12-17T09:58:12.544Z,5.00
2018-12-17T10:00:40.706Z,4.30
2018-12-17T10:03:08.727Z,3.07
2018-12-17T10:05:37.861Z,3.37
2018-12-17T10:08:06.222Z,8.20
2018-12-17T10:10:34.273Z,5.07
2018-12-17T10:13:03.260Z,3.80
2018-12-17T10:15:32.668Z,3.70
2018-12-17T10:18:00.794Z,3.73
2018-12-17T10:20:28.943Z,3.60
2018-12-17T10:22:57.103Z,3.93
2018-12-17T10:25:25.227Z,2.87
2018-12-17T10:27:53.425Z,2.83
2018-12-17T10:30:21.472Z,3.40
2018-12-17T10:32:49.616Z,3.47
2018-12-17T10:35:18.457Z,3.72
2018-12-17T10:37:47.416Z,3.43
2018-12-17T10:40:15.560Z,3.83
2018-12-17T10:42:43.766Z,3.80
2018-12-17T10:45:11.966Z,4.13
2018-12-17T10:47:40.166Z,3.50
2018-12-17T10:50:08.324Z,3.07
2018-12-17T10:52:38.365Z,4.03
2018-12-17T10:55:11.288Z,3.30
2018-12-17T10:57:40.569Z,2.93
2018-12-17T11:00:13.241Z,3.03
2018-12-17T11:02:41.329Z,3.40
2018-12-17T11:05:15.817Z,3.07
2018-12-17T11:07:46.823Z,3.13
2018-12-17T11:10:14.985Z,4.20
2018-12-17T11:12:43.208Z,3.87
2018-12-17T11:15:11.472Z,3.47
2018-12-17T11:17:39.643Z,2.73
2018-12-17T11:20:10.994Z,3.10
2018-12-17T11:22:39.476Z,4.03
2018-12-17T11:25:08.095Z,2.87
2018-12-17T11:27:36.416Z,3.42
2018-12-17T11:30:05.739Z,2.97
2018-12-17T11:32:42.803Z,3.67
2018-12-17T11:35:11.124Z,3.33
2018-12-17T11:37:39.973Z,3.33
2018-12-17T11:40:08.217Z,2.87
2018-12-17T11:42:37.054Z,3.70
2018-12-17T11:45:05.932Z,3.07
2018-12-17T11:47:33.969Z,3.50
2018-12-17T11:50:01.976Z,3.02
2018-12-17T11:52:30.109Z,4.10
2018-12-17T11:54:58.322Z,3.97
2018-12-17T11:57:43.236Z,2.87
2018-12-17T12:00:11.379Z,3.43
2018-12-17T12:02:39.444Z,3.87
2018-12-17T12:05:07.566Z,3.70
2018-12-17T12:07:35.810Z,3.03
2018-12-17T12:10:04.726Z,3.57
2018-12-17T12:13:04.023Z,2.80
2018-12-17T12:15:32.287Z,3.33
2018-12-17T12:18:00.393Z,3.63
2018-12-17T12:20:28.650Z,3.37
2018-12-17T12:22:56.792Z,4.83
2018-12-17T12:25:25.080Z,3.43
2018-12-17T12:27:53.191Z,3.17
2018-12-17T12:30:22.079Z,8.90
2018-12-17T12:32:50.891Z,3.13
2018-12-17T12:35:19.924Z,3.00
2018-12-17T12:37:48.542Z,2.73
2018-12-17T12:40:17.124Z,5.57
2018-12-17T12:42:51.350Z,4.13
2018-12-17T12:45:16.351Z,4.80
2018-12-17T12:47:44.749Z,3.70
2018-12-17T12:50:14.344Z,4.57
2018-12-17T12:52:42.556Z,4.90
2018-12-17T12:55:10.713Z,4.27
2018-12-17T12:57:39.254Z,5.93
2018-12-17T13:00:12.728Z,4.80
2018-12-17T13:02:41.313Z,3.73
2018-12-17T13:05:09.409Z,3.93
2018-12-17T13:07:37.972Z,5.30
2018-12-17T13:10:08.777Z,3.37
2018-12-17T13:12:38.308Z,3.27
2018-12-17T13:15:08.329Z,4.63
2018-12-17T13:17:37.425Z,3.30
2018-12-17T13:20:08.301Z,3.30
2018-12-17T13:22:37.255Z,2.97
2018-12-17T13:25:12.298Z,3.50
2018-12-17T13:27:42.946Z,2.90
2018-12-17T13:30:11.418Z,3.00
2018-12-17T13:32:41.104Z,4.03
2018-12-17T13:35:09.425Z,4.13
2018-12-17T13:37:40.001Z,2.77
2018-12-17T13:40:09.806Z,2.83
2018-12-17T13:42:39.016Z,3.63
2018-12-17T13:45:07.697Z,3.43
2018-12-17T13:47:36.069Z,3.67
2018-12-17T13:50:09.794Z,3.77
2018-12-17T13:52:43.264Z,4.40
2018-12-17T13:55:11.564Z,4.23
2018-12-17T13:57:40.300Z,3.77
2018-12-17T14:00:12.479Z,3.83
2018-12-17T14:02:40.912Z,3.93
2018-12-17T14:05:09.551Z,3.07
2018-12-17T14:07:38.570Z,3.47
2018-12-17T14:10:14.946Z,4.23
2018-12-17T14:12:45.791Z,4.10
2018-12-17T14:15:13.912Z,3.97
2018-12-17T14:17:46.791Z,4.63
2018-12-17T14:20:20.536Z,3.40
2018-12-17T14:22:48.592Z,3.90
2018-12-17T14:25:16.888Z,5.07
2018-12-17T14:27:45.121Z,4.50
2018-12-17T14:30:13.352Z,3.13
2018-12-17T14:32:42.091Z,4.30
2018-12-17T14:35:11.136Z,3.73
2018-12-17T14:37:44.664Z,2.57
2018-12-17T14:40:13.136Z,3.80
2018-12-17T14:42:43.271Z,3.27
2018-12-17T14:45:12.527Z,3.07
2018-12-17T14:47:42.027Z,3.57
2018-12-17T14:50:11.460Z,3.27
2018-12-17T14:52:39.485Z,3.67
2018-12-17T14:55:07.468Z,3.60
2018-12-17T14:57:35.475Z,3.87
2018-12-17T15:00:03.815Z,4.00
2018-12-17T15:02:31.810Z,3.87
2018-12-17T15:04:59.884Z,3.20
2018-12-17T15:07:27.872Z,3.03
2018-12-17T15:09:55.853Z,3.83
2018-12-17T15:12:24.607Z,3.90
2018-12-17T15:14:52.690Z,4.67
2018-12-17T15:17:20.672Z,4.10
2018-12-17T15:19:48.786Z,4.97
2018-12-17T15:22:16.746Z,4.50
2018-12-17T15:24:44.712Z,3.87
2018-12-17T15:27:13.618Z,6.90
2018-12-17T15:29:41.886Z,5.00
2018-12-17T15:32:09.857Z,4.75
2018-12-17T15:34:37.907Z,5.10
2018-12-17T15:37:06.786Z,3.27
2018-12-17T15:39:35.492Z,3.50
2018-12-17T15:42:05.197Z,4.87
2018-12-17T15:44:35.583Z,4.47
2018-12-17T15:47:04.279Z,4.50
2018-12-17T15:49:32.405Z,5.30
2018-12-17T15:52:06.418Z,5.47
2018-12-17T15:54:35.502Z,6.23
2018-12-17T15:57:08.290Z,7.97
2018-12-17T15:59:36.502Z,8.13
2018-12-17T16:02:04.534Z,8.43
2018-12-17T16:04:32.704Z,7.60
2018-12-17T16:07:01.575Z,11.63
2018-12-17T16:09:29.613Z,12.57
2018-12-17T16:11:57.789Z,21.87
2018-12-17T16:14:27.989Z,15.30
2018-12-17T16:16:56.557Z,16.13
2018-12-17T16:19:25.534Z,16.33
2018-12-17T16:21:54.179Z,14.77
2018-12-17T16:24:22.389Z,14.53
2018-12-17T16:26:51.177Z,24.57
2018-12-17T16:29:20.199Z,22.57
2018-12-17T16:31:49.732Z,14.73
2018-12-17T16:34:21.326Z,14.63
2018-12-17T16:36:50.059Z,12.77
2018-12-17T16:39:18.131Z,14.20
2018-12-17T16:41:47.713Z,13.70
2018-12-17T16:44:16.631Z,20.43
2018-12-17T16:46:46.743Z,16.63
2018-12-17T16:49:16.469Z,15.63
2018-12-17T16:51:46.244Z,16.13
2018-12-17T16:54:15.621Z,14.93
2018-12-17T16:56:45.841Z,19.93
2018-12-17T16:59:14.860Z,29.33
2018-12-17T17:01:43.705Z,23.90
2018-12-17T17:04:12.387Z,24.77
2018-12-17T17:06:41.664Z,22.37
2018-12-17T17:09:10.891Z,17.53
2018-12-17T17:11:39.670Z,16.13
2018-12-17T17:14:07.911Z,16.77
2018-12-17T17:16:36.664Z,15.57
2018-12-17T17:19:04.695Z,21.70
2018-12-17T17:21:32.669Z,18.87
2018-12-17T17:24:00.713Z,14.77
2018-12-17T17:26:28.645Z,41.57
2018-12-17T17:28:56.593Z,21.50
2018-12-17T17:31:24.552Z,19.10
2018-12-17T17:33:52.536Z,17.63
2018-12-17T17:36:20.549Z,18.70
2018-12-17T17:38:48.563Z,26.55
2018-12-17T17:41:16.514Z,23.30
2018-12-17T17:43:44.514Z,102.43
2018-12-17T17:46:13.193Z,53.50
2018-12-17T17:48:42.260Z,47.13
2018-12-17T17:51:10.455Z,31.37
2018-12-17T17:53:38.468Z,40.87
2018-12-17T17:56:06.540Z,39.53
2018-12-17T17:58:34.880Z,31.23
2018-12-17T18:01:03.111Z,27.37
2018-12-17T18:03:31.160Z,21.60
2018-12-17T18:06:00.449Z,21.63
2018-12-17T18:08:28.556Z,30.23
2018-12-17T18:10:56.523Z,22.93
2018-12-17T18:13:24.489Z,22.40
2018-12-17T18:15:52.449Z,21.77
2018-12-17T18:18:20.582Z,25.77
2018-12-17T18:20:49.252Z,26.60
2018-12-17T18:23:17.217Z,24.50
2018-12-17T18:25:45.187Z,26.63
2018-12-17T18:28:13.464Z,25.90
2018-12-17T18:30:41.990Z,31.93
2018-12-17T18:33:10.019Z,31.87
2018-12-17T18:35:37.956Z,30.60
2018-12-17T18:38:05.943Z,27.47
2018-12-17T18:40:33.960Z,38.10
2018-12-17T18:43:01.924Z,25.85
2018-12-17T18:45:29.917Z,30.00
2018-12-17T18:47:57.917Z,86.17
2018-12-17T18:50:25.864Z,32.20
2018-12-17T18:52:53.834Z,48.73
2018-12-17T18:55:21.920Z,68.70
2018-12-17T18:57:49.871Z,42.27
2018-12-17T19:00:18.175Z,40.53
2018-12-17T19:02:46.268Z,52.23
2018-12-17T19:05:14.216Z,35.30
2018-12-17T19:07:42.647Z,29.07
2018-12-17T19:10:10.776Z,38.67
2018-12-17T19:12:38.718Z,27.00
2018-12-17T19:15:06.666Z,20.37
2018-12-17T19:17:34.638Z,18.73
2018-12-17T19:20:02.664Z,26.47
2018-12-17T19:22:30.641Z,26.20
2018-12-17T19:24:58.598Z,24.73
2018-12-17T19:27:26.645Z,27.40
2018-12-17T19:29:54.596Z,27.53
2018-12-17T19:32:22.539Z,25.40
2018-12-17T19:34:50.570Z,25.87
2018-12-17T19:37:18.551Z,39.47
2018-12-17T19:39:46.483Z,20.17
2018-12-17T19:42:14.415Z,17.13
2018-12-17T19:44:42.491Z,36.83
2018-12-17T19:47:10.474Z,26.30
2018-12-17T19:49:38.464Z,21.37
2018-12-17T19:52:06.427Z,16.97
2018-12-17T19:54:34.442Z,19.07
2018-12-17T19:57:02.451Z,20.10
2018-12-17T19:59:30.396Z,20.47
2018-12-17T20:01:58.351Z,18.43
2018-12-17T20:04:26.372Z,23.10
2018-12-17T20:06:54.315Z,27.37
2018-12-17T20:09:22.264Z,22.60
2018-12-17T20:11:50.217Z,20.70
2018-12-17T20:14:18.167Z,21.10
2018-12-17T20:16:46.187Z,18.73
2018-12-17T20:19:14.232Z,19.37
2018-12-17T20:21:42.316Z,24.87
2018-12-17T20:24:10.269Z,19.73
2018-12-17T20:26:38.206Z,13.70
2018-12-17T20:29:06.167Z,14.93
2018-12-17T20:31:34.120Z,15.77
2018-12-17T20:34:02.067Z,15.70
2018-12-17T20:36:30.118Z,13.07
2018-12-17T20:38:58.092Z,12.70
2018-12-17T20:41:26.210Z,12.73
2018-12-17T20:43:54.174Z,12.07
2018-12-17T20:46:22.208Z,9.00
2018-12-17T20:48:50.205Z,11.57
2018-12-17T20:51:18.144Z,10.47
2018-12-17T20:53:46.103Z,9.27
2018-12-17T20:56:14.091Z,12.47
2018-12-17T20:58:42.167Z,11.57
2018-12-17T21:01:10.127Z,9.53
2018-12-17T21:03:38.121Z,9.10
2018-12-17T21:06:06.158Z,8.73
2018-12-17T21:08:34.135Z,11.87
2018-12-17T21:11:02.140Z,10.53
2018-12-17T21:13:30.103Z,13.07
2018-12-17T21:15:58.079Z,22.40
2018-12-17T21:18:26.055Z,14.57
2018-12-17T21:20:54.060Z,14.50
2018-12-17T21:23:22.397Z,10.47
2018-12-17T21:25:50.374Z,11.07
2018-12-17T21:28:18.328Z,9.10
2018-12-17T21:30:46.308Z,11.63
2018-12-17T21:33:14.287Z,12.73
2018-12-17T21:35:43.144Z,11.37
2018-12-17T21:38:11.792Z,12.43
2018-12-17T21:40:39.773Z,12.47
2018-12-17T21:43:07.938Z,16.57
2018-12-17T21:45:36.117Z,11.33
2018-12-17T21:48:04.140Z,14.23
2018-12-17T21:50:32.181Z,15.93
2018-12-17T21:53:00.174Z,16.83
2018-12-17T21:55:28.136Z,16.27
2018-12-17T21:57:56.096Z,12.47
2018-12-17T22:00:24.027Z,12.20
2018-12-17T22:02:51.962Z,12.03
2018-12-17T22:05:19.909Z,11.40
2018-12-17T22:07:47.866Z,10.87
2018-12-17T22:10:20.284Z,11.10
2018-12-17T22:12:48.224Z,9.10
2018-12-17T22:15:16.195Z,6.93
2018-12-17T22:17:44.879Z,8.97
2018-12-17T22:20:13.028Z,7.27
2018-12-17T22:22:41.539Z,9.58
2018-12-17T22:25:09.533Z,7.80
2018-12-17T22:27:37.459Z,9.03
2018-12-17T22:30:05.712Z,10.73
2018-12-17T22:32:33.696Z,9.33
2018-12-17T22:35:01.741Z,10.90
2018-12-17T22:37:29.752Z,13.30
2018-12-17T22:39:57.720Z,12.60
2018-12-17T22:42:25.657Z,13.20
2018-12-17T22:44:53.601Z,11.40
2018-12-17T22:47:21.531Z,11.53
2018-12-17T22:49:49.465Z,8.97
2018-12-17T22:52:17.424Z,8.50
2018-12-17T22:54:45.601Z,8.47
2018-12-17T22:57:13.569Z,8.67
2018-12-17T22:59:41.750Z,7.73
2018-12-17T23:02:09.732Z,7.80
2018-12-17T23:04:37.716Z,7.97
2018-12-17T23:07:05.664Z,7.27
2018-12-17T23:09:44.683Z,7.87
2018-12-17T23:12:25.063Z,8.27
2018-12-17T23:15:04.074Z,11.57
2018-12-17T23:17:39.278Z,9.07
2018-12-17T23:20:08.030Z,9.73
2018-12-17T23:22:36.336Z,9.07
2018-12-17T23:25:04.329Z,8.23
2018-12-17T23:27:32.291Z,8.23
2018-12-17T23:30:00.407Z,9.07
2018-12-17T23:32:34.485Z,9.73
2018-12-17T23:35:02.536Z,9.23
2018-12-17T23:37:30.552Z,8.47
2018-12-17T23:39:58.529Z,8.20
2018-12-17T23:42:28.019Z,8.33
2018-12-17T23:44:56.649Z,9.43
2018-12-17T23:47:24.596Z,8.23
2018-12-17T23:49:52.536Z,7.67
2018-12-17T23:52:20.516Z,6.37
2018-12-17T23:54:48.489Z,7.27
2018-12-17T23:57:16.462Z,6.60
2018-12-17T23:59:44.423Z,7.17
